Time;durP1;ratioP1;P1;durP2;ratioP2;P2;SDS_P1;SDS_P2;PMS_P1;PMS_P2;Temp;Humidity;BMP_temperature;BMP_pressure;BME280_temperature;BME280_humidity;BME280_pressure;Samples;Min_cycle;Max_cycle;Signal;HPM_P1;HPM_P2
2023/04/14 00:02:11;;;;;;;5.40;4.30;;;;;;;11.24;64.23;96225.56;5108243;28;20195;-85
2023/04/14 00:04:38;;;;;;;5.73;4.73;;;;;;;11.19;64.70;96238.00;5104210;28;20185;-80
2023/04/14 00:07:05;;;;;;;7.00;5.10;;;;;;;11.17;64.69;96253.63;5092745;28;20548;-86
2023/04/14 00:09:32;;;;;;;7.53;5.20;;;;;;;11.25;64.15;96240.22;5105819;28;20776;-85
2023/04/14 00:12:00;;;;;;;7.83;5.63;;;;;;;11.41;64.17;96252.16;5095209;28;20570;-85
2023/04/14 00:14:27;;;;;;;7.20;4.83;;;;;;;11.45;64.02;96245.84;5093949;28;20188;-86
2023/04/14 00:16:53;;;;;;;6.93;4.63;;;;;;;11.43;64.14;96254.63;5094147;28;20675;-86
2023/04/14 00:19:21;;;;;;;7.70;4.90;;;;;;;11.37;63.77;96253.22;5094078;28;20222;-84
2023/04/14 00:21:48;;;;;;;7.23;4.70;;;;;;;11.01;65.60;96267.59;5097323;28;20609;-85
2023/04/14 00:24:15;;;;;;;5.73;4.50;;;;;;;10.77;65.71;96251.75;5097649;28;20217;-86
2023/04/14 00:26:42;;;;;;;6.70;5.10;;;;;;;10.72;66.35;96265.88;5095463;28;20603;-83
2023/04/14 00:29:10;;;;;;;7.13;5.37;;;;;;;10.83;66.24;96264.34;5110277;28;20206;-85
2023/04/14 00:31:37;;;;;;;7.80;4.80;;;;;;;11.03;65.44;96266.56;5109560;28;20184;-85
2023/04/14 00:34:04;;;;;;;6.50;5.67;;;;;;;11.08;65.64;96264.56;5091024;28;20599;-85
2023/04/14 00:36:31;;;;;;;9.77;5.00;;;;;;;10.84;65.04;96237.50;5102663;28;20226;-86
2023/04/14 00:38:59;;;;;;;5.70;4.90;;;;;;;10.42;67.24;96263.34;5107464;28;20224;-85
2023/04/14 00:41:32;;;;;;;9.17;6.30;;;;;;;10.38;68.31;96277.38;5107754;28;20209;-86
2023/04/14 00:44:00;;;;;;;8.53;5.90;;;;;;;10.46;67.81;96270.00;5094094;28;20210;-81
2023/04/14 00:46:28;;;;;;;7.97;5.40;;;;;;;10.65;66.82;96270.63;5095688;28;20204;-84
2023/04/14 00:48:55;;;;;;;8.60;6.63;;;;;;;10.46;67.76;96265.66;5079023;28;20600;-88
2023/04/14 00:51:23;;;;;;;11.07;6.90;;;;;;;10.55;67.58;96267.69;5078758;28;20199;-85
2023/04/14 00:53:52;;;;;;;8.10;6.07;;;;;;;10.58;67.16;96254.59;5106321;28;20196;-83
2023/04/14 00:56:20;;;;;;;7.97;6.17;;;;;;;10.49;67.50;96259.44;5104980;28;20193;-80
2023/04/14 00:58:47;;;;;;;8.80;6.10;;;;;;;10.37;67.59;96271.34;5114062;28;20229;-79
2023/04/14 01:01:14;;;;;;;8.33;5.73;;;;;;;10.17;68.46;96268.22;5109929;28;20189;-77
2023/04/14 01:03:42;;;;;;;7.83;5.97;;;;;;;9.77;69.96;96267.84;5088102;28;20228;-80
2023/04/14 01:06:10;;;;;;;7.97;5.40;;;;;;;9.66;70.95;96270.19;5108588;28;20218;-81
2023/04/14 01:08:37;;;;;;;6.80;5.77;;;;;;;9.68;70.87;96255.44;5103390;28;20272;-82
2023/04/14 01:11:43;;;;;;;7.27;4.63;;;;;;;9.98;69.90;96262.38;5089885;28;20386;-86
2023/04/14 01:14:26;;;;;;;7.50;5.17;;;;;;;10.20;68.87;96242.19;5007098;28;20202;-84
2023/04/14 01:17:07;;;;;;;11.57;5.83;;;;;;;10.40;68.40;96244.47;4976886;28;20195;-82
2023/04/14 01:20:01;;;;;;;6.93;5.07;;;;;;;10.31;68.73;96255.34;5060966;28;20314;-83
2023/04/14 01:22:30;;;;;;;7.87;5.70;;;;;;;10.40;68.97;96254.81;5091675;28;20607;-81
2023/04/14 01:25:25;;;;;;;7.83;5.43;;;;;;;10.63;68.30;96257.72;5075916;28;20197;-84
2023/04/14 01:28:13;;;;;;;6.57;5.00;;;;;;;10.76;67.62;96262.22;5091822;28;20267;-84
2023/04/14 01:30:49;;;;;;;6.30;5.10;;;;;;;10.84;67.40;96260.00;5091959;28;20197;-83
2023/04/14 01:33:21;;;;;;;6.57;4.93;;;;;;;10.90;66.48;96262.22;5074559;28;20673;-81
2023/04/14 01:35:57;;;;;;;6.47;5.30;;;;;;;10.82;66.33;96257.47;5073443;28;20185;-73
2023/04/14 01:38:33;;;;;;;8.63;5.20;;;;;;;10.83;66.68;96264.34;5073188;28;20292;-82
2023/04/14 01:41:08;;;;;;;5.70;4.63;;;;;;;10.72;66.48;96260.69;5071176;28;20199;-83
2023/04/14 01:43:38;;;;;;;6.23;4.87;;;;;;;10.77;66.82;96254.34;5096919;28;20189;-81
2023/04/14 01:46:12;;;;;;;7.03;4.57;;;;;;;10.80;66.97;96259.34;5079805;28;20197;-84
2023/04/14 01:48:40;;;;;;;4.70;3.97;;;;;;;10.77;67.21;96256.09;5077573;28;20188;-84
2023/04/14 01:51:10;;;;;;;6.73;3.90;;;;;;;10.82;66.89;96262.66;5091462;28;20202;-83
2023/04/14 01:53:41;;;;;;;5.00;4.50;;;;;;;10.65;67.62;96253.28;5071135;28;20292;-84
2023/04/14 01:56:11;;;;;;;6.57;4.40;;;;;;;10.77;67.31;96254.34;5072696;28;20280;-84
2023/04/14 01:58:40;;;;;;;7.37;4.87;;;;;;;10.73;67.33;96250.28;5095828;28;20227;-86
2023/04/14 02:01:07;;;;;;;7.20;5.20;;;;;;;10.67;66.86;96254.97;5074573;28;20196;-85
2023/04/14 02:03:35;;;;;;;8.27;6.17;;;;;;;10.74;67.17;96259.69;5094098;28;20210;-83
2023/04/14 02:06:05;;;;;;;7.77;5.30;;;;;;;10.65;67.68;96261.06;5093051;28;20224;-85
2023/04/14 02:08:33;;;;;;;7.70;4.47;;;;;;;10.55;67.49;96248.78;5078989;28;20200;-80
2023/04/14 02:11:01;;;;;;;6.77;4.90;;;;;;;10.23;68.65;96257.53;5077856;28;20296;-85
2023/04/14 02:13:31;;;;;;;7.50;5.70;;;;;;;9.81;70.06;96251.22;5077716;28;20862;-83
2023/04/14 02:16:18;;;;;;;8.33;5.57;;;;;;;9.98;69.65;96252.03;5082129;28;20247;-85
2023/04/14 02:18:47;;;;;;;7.77;6.07;;;;;;;9.64;71.05;96240.97;5071302;28;20227;-82
2023/04/14 02:21:16;;;;;;;7.33;5.80;;;;;;;9.55;71.23;96238.06;5089576;28;20241;-84
2023/04/14 02:23:43;;;;;;;7.23;4.67;;;;;;;9.46;71.36;96247.16;5077091;28;20334;-86
2023/04/14 02:26:13;;;;;;;7.20;5.07;;;;;;;9.71;70.97;96252.66;5102039;28;20211;-86
2023/04/14 02:28:48;;;;;;;8.53;6.53;;;;;;;9.72;70.34;96246.59;5097174;28;20208;-84
2023/04/14 02:31:22;;;;;;;7.90;6.37;;;;;;;9.55;70.53;96243.22;5098893;28;20713;-84
2023/04/14 02:33:53;;;;;;;12.80;6.40;;;;;;;9.50;71.37;96240.91;5099834;28;20200;-86
2023/04/14 02:36:31;;;;;;;7.43;6.30;;;;;;;9.50;71.69;96235.72;5095637;28;20224;-82
2023/04/14 02:39:03;;;;;;;7.20;5.17;;;;;;;9.52;71.72;96239.06;5097079;28;20224;-84
2023/04/14 02:41:32;;;;;;;8.93;5.97;;;;;;;9.68;71.21;96234.75;5107855;28;20215;-82
2023/04/14 02:44:08;;;;;;;20.93;13.03;;;;;;;9.75;70.63;96230.03;5087734;28;20269;-85
2023/04/14 02:46:41;;;;;;;12.90;7.87;;;;;;;9.92;70.12;96234.28;5077493;28;20238;-86
2023/04/14 02:49:11;;;;;;;7.60;5.47;;;;;;;10.07;69.48;96241.19;5074439;28;20220;-85
2023/04/14 02:51:40;;;;;;;9.33;6.73;;;;;;;10.03;69.69;96234.53;5062616;28;20193;-85
2023/04/14 02:54:07;;;;;;;12.40;7.70;;;;;;;10.10;69.11;96241.03;5073931;28;20583;-84
2023/04/14 02:56:39;;;;;;;10.10;6.90;;;;;;;10.08;69.48;96245.41;5082810;28;20183;-86
2023/04/14 02:59:07;;;;;;;14.27;8.27;;;;;;;10.15;69.34;96241.63;5092469;28;20251;-85
2023/04/14 03:01:42;;;;;;;10.97;7.73;;;;;;;10.06;68.82;96230.00;5085298;28;20265;-82
2023/04/14 03:04:09;;;;;;;9.57;5.97;;;;;;;9.91;69.67;96236.06;5080775;28;20197;-84
2023/04/14 03:06:39;;;;;;;10.20;5.57;;;;;;;9.86;70.31;96248.41;5082928;28;20196;-81
2023/04/14 03:09:07;;;;;;;9.50;4.83;;;;;;;9.93;70.42;96246.31;5079845;28;20287;-84
2023/04/14 03:11:36;;;;;;;8.37;4.87;;;;;;;9.99;69.79;96253.72;5079826;28;20193;-83
2023/04/14 03:14:05;;;;;;;23.90;7.07;;;;;;;9.87;70.29;96244.06;5081082;28;20968;-83
2023/04/14 03:16:38;;;;;;;8.17;5.60;;;;;;;9.90;70.33;96259.38;5080665;28;20602;-84
2023/04/14 03:19:09;;;;;;;7.37;4.67;;;;;;;9.72;70.46;96267.25;5074465;28;20302;-84
2023/04/14 03:21:39;;;;;;;7.30;5.70;;;;;;;9.67;71.10;96269.25;5072400;28;20229;-84
2023/04/14 03:24:07;;;;;;;8.00;5.37;;;;;;;9.71;71.02;96273.34;5072720;28;20267;-84
2023/04/14 03:26:36;;;;;;;9.80;6.80;;;;;;;9.71;71.06;96275.91;5072734;28;20692;-83
2023/04/14 03:29:05;;;;;;;8.87;5.50;;;;;;;9.68;71.40;96270.09;5073021;28;20193;-82
2023/04/14 03:31:36;;;;;;;7.60;5.40;;;;;;;9.52;71.80;96270.06;5073845;28;20204;-81
2023/04/14 03:34:07;;;;;;;7.07;5.03;;;;;;;9.70;71.34;96265.69;5076263;28;20208;-79
2023/04/14 03:36:41;;;;;;;6.97;4.97;;;;;;;9.77;70.42;96262.66;5076865;28;20268;-84
2023/04/14 03:39:13;;;;;;;7.40;5.10;;;;;;;9.53;71.22;96269.16;5091152;28;20281;-83
2023/04/14 03:41:47;;;;;;;9.20;5.10;;;;;;;9.49;71.02;96243.56;5072599;28;20283;-83
2023/04/14 03:44:18;;;;;;;7.27;5.13;;;;;;;9.33;72.35;96261.66;5072025;28;20665;-83
2023/04/14 03:46:48;;;;;;;7.87;5.00;;;;;;;9.39;72.21;96256.16;5075002;28;20272;-84
2023/04/14 03:49:17;;;;;;;6.67;4.70;;;;;;;9.33;71.88;96263.41;5086771;28;20193;-82
2023/04/14 03:51:50;;;;;;;8.93;5.20;;;;;;;9.36;72.63;96248.56;5064263;28;20204;-82
2023/04/14 03:54:22;;;;;;;8.43;6.00;;;;;;;9.43;72.13;96255.09;5059076;28;20246;-83
2023/04/14 03:56:54;;;;;;;9.60;5.80;;;;;;;9.37;72.05;96260.56;5056413;28;20223;-82
2023/04/14 03:59:25;;;;;;;6.27;4.93;;;;;;;9.25;72.67;96250.91;5088735;28;20616;-82
2023/04/14 04:01:54;;;;;;;7.43;5.00;;;;;;;9.25;72.38;96256.06;5070495;28;20181;-85
2023/04/14 04:04:22;;;;;;;6.30;4.90;;;;;;;9.27;72.85;96269.75;5072437;28;20595;-89
2023/04/14 04:06:50;;;;;;;7.27;5.23;;;;;;;9.35;72.20;96270.16;5079073;28;20608;-81
2023/04/14 04:09:20;;;;;;;8.93;5.47;;;;;;;9.50;71.36;96264.16;5066534;28;20189;-85
2023/04/14 04:11:48;;;;;;;11.03;5.57;;;;;;;9.51;71.62;96273.59;5052937;28;20193;-80
2023/04/14 04:14:19;;;;;;;9.13;5.47;;;;;;;9.63;72.08;96272.91;5053236;28;20240;-83
2023/04/14 04:16:49;;;;;;;9.87;5.57;;;;;;;9.82;70.78;96270.16;5052206;28;20212;-82
2023/04/14 04:19:20;;;;;;;7.33;5.67;;;;;;;9.88;70.88;96272.41;5052846;28;20639;-80
2023/04/14 04:21:52;;;;;;;9.20;5.30;;;;;;;9.74;70.35;96264.59;5070453;28;20232;-84
2023/04/14 04:24:22;;;;;;;9.47;6.57;;;;;;;9.52;71.04;96262.31;5055201;28;20241;-83
2023/04/14 04:26:51;;;;;;;6.50;5.43;;;;;;;9.31;71.25;96275.56;5055645;28;20205;-85
2023/04/14 04:29:21;;;;;;;9.20;6.87;;;;;;;9.14;72.44;96263.53;5072901;28;20229;-84
2023/04/14 04:31:48;;;;;;;10.90;6.93;;;;;;;8.96;72.67;96251.59;5056036;28;20219;-85
2023/04/14 04:34:17;;;;;;;11.80;7.70;;;;;;;9.25;72.29;96271.56;5092453;28;20255;-82
2023/04/14 04:36:45;;;;;;;7.60;6.17;;;;;;;9.45;70.97;96278.25;5075466;28;20197;-77
2023/04/14 04:39:12;;;;;;;11.87;7.13;;;;;;;9.51;70.86;96273.59;5098267;28;20221;-86
2023/04/14 04:41:41;;;;;;;8.63;5.80;;;;;;;9.90;69.69;96288.69;5088489;28;20276;-83
2023/04/14 04:44:08;;;;;;;7.73;5.00;;;;;;;10.16;68.83;96285.50;5099102;28;20192;-87
2023/04/14 04:46:49;;;;;;;15.63;7.07;;;;;;;10.22;68.56;96281.75;5060379;28;20193;-83
2023/04/14 04:49:16;;;;;;;11.57;5.87;;;;;;;10.15;68.19;96290.78;5058671;28;20668;-87
2023/04/14 04:51:45;;;;;;;9.50;5.87;;;;;;;9.94;69.74;96276.41;5079445;28;20266;-86
2023/04/14 04:54:13;;;;;;;9.07;5.83;;;;;;;10.14;68.73;96289.13;5079189;28;20326;-85
2023/04/14 04:56:40;;;;;;;17.10;7.93;;;;;;;10.25;68.36;96291.91;5081319;28;20760;-84
2023/04/14 04:59:08;;;;;;;8.67;5.67;;;;;;;10.32;68.13;96286.34;5098063;28;20252;-85
2023/04/14 05:01:35;;;;;;;10.93;6.50;;;;;;;10.21;68.26;96282.66;5096475;28;20204;-85
2023/04/14 05:04:02;;;;;;;9.77;6.23;;;;;;;10.16;68.62;96282.91;5081380;28;20200;-81
2023/04/14 05:06:29;;;;;;;10.30;6.63;;;;;;;10.53;67.88;96281.69;5107200;28;20284;-84
2023/04/14 05:08:56;;;;;;;11.07;7.03;;;;;;;10.87;67.28;96290.88;5081275;28;20193;-79
2023/04/14 05:11:23;;;;;;;9.60;6.27;;;;;;;10.98;66.11;96284.16;5100467;28;20205;-82
2023/04/14 05:13:50;;;;;;;11.90;6.93;;;;;;;10.74;66.52;96277.00;5096300;28;20185;-79
2023/04/14 05:16:17;;;;;;;10.57;6.20;;;;;;;11.15;66.40;96283.97;5092855;28;20258;-84
2023/04/14 05:19:24;;;;;;;8.47;6.37;;;;;;;11.09;65.67;96273.97;5088753;28;20198;-86
2023/04/14 05:22:45;;;;;;;9.30;6.70;;;;;;;11.25;66.04;96269.53;5086199;28;20306;-85
2023/04/14 05:26:05;;;;;;;10.83;7.23;;;;;;;11.68;64.27;96279.91;5098770;28;20226;-84
2023/04/14 05:29:26;;;;;;;10.67;6.50;;;;;;;12.01;63.83;96254.44;5092569;28;20190;-84
2023/04/14 05:32:47;;;;;;;9.13;6.47;;;;;;;12.35;63.44;96279.88;5101145;28;20207;-83
2023/04/14 05:36:07;;;;;;;23.23;10.23;;;;;;;12.64;62.70;96268.44;5103292;28;20184;-82
2023/04/14 05:39:28;;;;;;;10.27;7.70;;;;;;;12.90;61.78;96232.94;5098264;28;20194;-84
2023/04/14 05:42:48;;;;;;;8.50;6.37;;;;;;;13.27;60.08;96270.25;5075743;28;20182;-83
2023/04/14 05:46:10;;;;;;;11.47;6.80;;;;;;;13.35;59.23;96254.97;5071116;28;20795;-85
2023/04/14 05:49:30;;;;;;;12.13;6.63;;;;;;;13.63;58.52;96265.94;5061482;28;20259;-78
2023/04/14 05:52:12;;;;;;;15.20;7.17;;;;;;;13.47;58.46;96230.69;5079399;28;20194;-83
2023/04/14 05:54:39;;;;;;;18.57;8.63;;;;;;;13.41;57.48;96192.97;5059381;28;21140;-81
2023/04/14 05:57:12;;;;;;;15.63;8.47;;;;;;;13.89;57.67;96271.91;5076199;28;20386;-81
2023/04/14 05:59:59;;;;;;;11.20;6.87;;;;;;;14.27;56.51;96270.00;5075926;28;20241;-80
2023/04/14 06:02:34;;;;;;;15.80;7.10;;;;;;;14.19;56.78;96211.59;5100720;28;20245;-81
2023/04/14 06:05:03;;;;;;;11.03;7.00;;;;;;;14.41;56.05;96269.84;5088675;28;20306;-82
2023/04/14 06:07:30;;;;;;;8.97;5.80;;;;;;;14.16;55.96;96249.09;5083159;28;20195;-81
2023/04/14 06:09:58;;;;;;;9.70;6.67;;;;;;;14.35;55.91;96248.63;5065632;28;20219;-84
2023/04/14 06:12:27;;;;;;;8.50;5.87;;;;;;;14.31;55.35;96253.22;5079906;28;20193;-85
2023/04/14 06:14:55;;;;;;;11.03;6.33;;;;;;;14.06;56.95;96237.69;5086948;28;20196;-84
2023/04/14 06:17:28;;;;;;;8.07;5.57;;;;;;;14.27;56.57;96249.16;5082251;28;20221;-83
2023/04/14 06:19:57;;;;;;;6.97;5.70;;;;;;;14.42;56.34;96240.25;5076452;28;20228;-77
2023/04/14 06:22:28;;;;;;;21.13;10.73;;;;;;;14.74;55.74;96224.81;5090527;28;20256;-84
2023/04/14 06:24:58;;;;;;;9.67;6.73;;;;;;;15.04;54.78;96232.94;5093211;28;20189;-84
2023/04/14 06:27:25;;;;;;;10.30;7.17;;;;;;;15.07;54.39;96232.69;5095612;28;20689;-83
2023/04/14 06:29:52;;;;;;;9.80;6.83;;;;;;;15.22;54.10;96205.44;5090769;28;20249;-84
2023/04/14 06:32:20;;;;;;;10.63;7.13;;;;;;;15.39;53.91;96204.13;5069752;28;20186;-82
2023/04/14 06:34:47;;;;;;;12.17;9.30;;;;;;;15.27;54.31;96218.94;5070904;28;20189;-74
2023/04/14 06:37:16;;;;;;;8.50;6.17;;;;;;;15.44;54.57;96215.06;5089508;28;20184;-78
2023/04/14 06:39:43;;;;;;;10.23;5.83;;;;;;;15.22;55.43;96207.22;5088144;28;20216;-76
2023/04/14 06:42:12;;;;;;;9.37;6.83;;;;;;;15.11;55.85;96212.41;5087701;28;20775;-82
2023/04/14 06:44:40;;;;;;;6.17;5.57;;;;;;;14.85;56.42;96222.25;5103330;28;20275;-80
2023/04/14 06:47:08;;;;;;;13.40;7.43;;;;;;;14.90;57.11;96208.88;5087732;28;20679;-80
2023/04/14 06:49:35;;;;;;;7.23;5.30;;;;;;;15.19;55.71;96210.06;5068271;28;20226;-77
2023/04/14 06:52:04;;;;;;;10.23;5.03;;;;;;;15.28;55.29;96217.19;5088114;28;20277;-76
2023/04/14 06:54:31;;;;;;;12.97;5.97;;;;;;;15.22;55.93;96220.25;5069157;28;20190;-79
2023/04/14 06:56:58;;;;;;;9.10;5.77;;;;;;;15.04;56.30;96225.13;5087749;28;20316;-81
2023/04/14 06:59:28;;;;;;;6.10;4.97;;;;;;;14.80;56.69;96226.13;5087713;28;20606;-74
2023/04/14 07:01:57;;;;;;;7.47;4.73;;;;;;;14.55;57.21;96225.38;5087737;28;20193;-80
2023/04/14 07:04:34;;;;;;;8.80;4.90;;;;;;;14.32;58.35;96228.81;5104055;28;20196;-83
2023/04/14 07:07:01;;;;;;;7.57;4.93;;;;;;;14.59;57.98;96245.03;5088551;28;20206;-80
2023/04/14 07:09:28;;;;;;;8.07;4.47;;;;;;;14.14;59.09;96245.78;5088020;28;20245;-79
2023/04/14 07:11:56;;;;;;;8.27;5.47;;;;;;;14.48;58.66;96249.38;5068924;28;20216;-75
2023/04/14 07:14:23;;;;;;;6.40;4.40;;;;;;;13.77;60.03;96231.13;5092430;28;20591;-85
2023/04/14 07:16:51;;;;;;;7.70;5.10;;;;;;;14.16;59.93;96228.25;5088503;28;20199;-82
2023/04/14 07:19:19;;;;;;;8.30;5.30;;;;;;;14.34;59.42;96203.50;5089421;28;20195;-81
2023/04/14 07:21:46;;;;;;;9.60;4.90;;;;;;;14.00;61.19;96211.25;5094545;28;20234;-81
2023/04/14 07:24:16;;;;;;;9.53;5.33;;;;;;;14.82;59.75;96227.69;5104426;28;20254;-77
2023/04/14 07:26:43;;;;;;;6.90;5.93;;;;;;;15.23;58.46;96211.47;5079833;28;20215;-77
2023/04/14 07:29:11;;;;;;;8.63;5.30;;;;;;;15.42;58.50;96212.59;5091213;28;20295;-78
2023/04/14 07:31:38;;;;;;;6.77;4.57;;;;;;;15.56;57.90;96210.69;5056946;28;20207;-79
2023/04/14 07:34:06;;;;;;;9.37;6.17;;;;;;;15.85;57.53;96202.19;5091799;28;20204;-79
2023/04/14 07:36:34;;;;;;;8.93;5.83;;;;;;;15.75;57.64;96192.59;5092416;28;20191;-76
2023/04/14 07:39:01;;;;;;;9.23;5.90;;;;;;;16.10;57.54;96198.44;5091495;28;20187;-76
2023/04/14 07:41:28;;;;;;;6.80;5.67;;;;;;;15.25;59.80;96189.53;5090663;28;20659;-80
2023/04/14 07:43:57;;;;;;;8.40;6.27;;;;;;;15.40;59.61;96179.69;5056138;28;20196;-81
2023/04/14 07:46:26;;;;;;;16.20;6.10;;;;;;;15.77;59.25;96193.31;5090226;28;20281;-75
2023/04/14 07:48:53;;;;;;;11.10;7.07;;;;;;;15.89;58.05;96193.16;5091029;28;20643;-77
2023/04/14 07:51:22;;;;;;;9.17;6.67;;;;;;;15.63;58.57;96178.75;5071470;28;20192;-74
2023/04/14 07:54:30;;;;;;;13.20;6.83;;;;;;;16.13;58.16;96198.19;5071723;28;20208;-72
2023/04/14 07:57:12;;;;;;;9.70;6.00;;;;;;;16.43;57.96;96192.22;5052709;28;20334;-81
2023/04/14 07:59:41;;;;;;;6.97;5.70;;;;;;;16.12;58.70;96191.28;5083320;28;20658;-81
2023/04/14 08:02:09;;;;;;;16.87;5.67;;;;;;;15.98;59.41;96195.03;5090466;28;20197;-75
2023/04/14 08:04:36;;;;;;;8.37;5.50;;;;;;;16.22;59.14;96185.22;5091692;28;20193;-80
2023/04/14 08:07:04;;;;;;;11.93;7.03;;;;;;;16.71;58.50;96196.88;5070838;28;20246;-79
2023/04/14 08:09:32;;;;;;;6.97;4.77;;;;;;;16.68;57.79;96197.13;5080378;28;20272;-82
2023/04/14 08:12:02;;;;;;;10.97;6.63;;;;;;;16.87;57.46;96190.25;5069267;28;20212;-80
2023/04/14 08:14:33;;;;;;;9.63;6.23;;;;;;;16.64;56.83;96187.88;5038206;28;20251;-84
2023/04/14 08:17:01;;;;;;;6.87;5.03;;;;;;;16.17;58.39;96173.47;5068426;28;20250;-83
2023/04/14 08:19:29;;;;;;;8.00;5.93;;;;;;;16.16;59.24;96182.25;5054692;28;20276;-75
2023/04/14 08:21:57;;;;;;;6.63;5.43;;;;;;;15.91;60.17;96165.13;5052367;28;20235;-78
2023/04/14 08:24:24;;;;;;;8.70;5.70;;;;;;;15.89;60.21;96158.41;5036379;28;20315;-79
2023/04/14 08:26:51;;;;;;;14.73;6.90;;;;;;;16.12;60.06;96150.34;5052549;28;20196;-75
2023/04/14 08:29:18;;;;;;;15.00;6.30;;;;;;;16.04;60.69;96159.75;5071069;28;20201;-75
2023/04/14 08:31:45;;;;;;;12.10;6.87;;;;;;;16.13;60.70;96144.19;5054231;28;20292;-80
2023/04/14 08:34:14;;;;;;;9.30;6.50;;;;;;;16.11;61.33;96166.97;5069970;28;20259;-82
2023/04/14 08:36:47;;;;;;;10.73;6.13;;;;;;;16.32;60.89;96159.16;5070888;28;20207;-80
2023/04/14 08:39:15;;;;;;;10.97;6.33;;;;;;;16.58;60.82;96151.78;5070261;28;20197;-78
2023/04/14 08:41:42;;;;;;;11.10;6.90;;;;;;;16.43;60.93;96163.47;5070924;28;20263;-76
2023/04/14 08:44:09;;;;;;;13.17;7.40;;;;;;;16.25;62.38;96145.78;5069557;28;20193;-79
2023/04/14 08:46:36;;;;;;;9.13;6.33;;;;;;;16.27;62.82;96141.25;5069493;28;20262;-83
2023/04/14 08:49:15;;;;;;;8.33;6.43;;;;;;;16.39;63.28;96139.41;5051642;28;20193;-80
2023/04/14 08:51:44;;;;;;;17.47;7.73;;;;;;;16.36;63.79;96133.59;5068710;28;20183;-77
2023/04/14 08:54:27;;;;;;;11.83;7.00;;;;;;;16.23;64.54;96128.56;5069366;28;20197;-77
2023/04/14 08:56:57;;;;;;;13.97;7.53;;;;;;;16.28;65.22;96139.44;5069766;28;20197;-81
2023/04/14 08:59:26;;;;;;;11.07;7.27;;;;;;;16.19;65.84;96116.72;5051555;28;20209;-78
2023/04/14 09:01:54;;;;;;;10.07;7.27;;;;;;;16.08;66.84;96143.72;5070837;28;20239;-84
2023/04/14 09:04:22;;;;;;;14.73;7.87;;;;;;;16.18;67.04;96147.22;5072001;28;20209;-80
2023/04/14 09:06:51;;;;;;;11.97;9.37;;;;;;;16.43;67.32;96142.56;5051630;28;20196;-80
2023/04/14 09:09:19;;;;;;;16.03;7.80;;;;;;;16.48;67.48;96140.41;5068477;28;20205;-77
2023/04/14 09:11:47;;;;;;;12.97;8.00;;;;;;;16.40;68.02;96135.00;5052287;28;20203;-81
2023/04/14 09:14:15;;;;;;;14.00;7.43;;;;;;;16.43;68.17;96124.28;5070526;28;20276;-79
2023/04/14 09:16:43;;;;;;;17.67;9.37;;;;;;;16.61;68.71;96160.19;5069784;28;20195;-75
2023/04/14 09:19:10;;;;;;;17.40;11.70;;;;;;;16.64;68.64;96153.91;5070184;28;20194;-80
2023/04/14 09:21:40;;;;;;;26.83;17.40;;;;;;;16.59;69.11;96153.47;5070952;28;20254;-80
2023/04/14 09:24:27;;;;;;;20.37;15.77;;;;;;;16.42;69.18;96147.00;5078582;28;20193;-79
2023/04/14 09:27:00;;;;;;;21.50;14.07;;;;;;;16.36;70.14;96157.13;5074790;28;20195;-80
2023/04/14 09:29:28;;;;;;;18.80;13.20;;;;;;;16.61;69.46;96154.16;5071942;28;20215;-77
2023/04/14 09:31:55;;;;;;;21.40;10.53;;;;;;;16.48;69.05;96151.72;5076770;28;20278;-78
2023/04/14 09:34:22;;;;;;;18.10;9.50;;;;;;;16.56;69.08;96153.72;5094173;28;20277;-75
2023/04/14 09:37:04;;;;;;;22.17;12.17;;;;;;;16.52;69.80;96155.75;5099961;28;20212;-76
2023/04/14 09:39:31;;;;;;;15.30;10.57;;;;;;;16.40;69.78;96143.69;5099198;28;20239;-76
2023/04/14 09:42:00;;;;;;;15.17;10.67;;;;;;;16.38;70.41;96156.06;5062582;28;20224;-73
2023/04/14 09:44:27;;;;;;;16.37;12.23;;;;;;;16.55;69.97;96165.94;5080568;28;20264;-76
2023/04/14 09:47:05;;;;;;;16.97;10.50;;;;;;;16.67;69.52;96170.16;5093429;28;20181;-79
2023/04/14 09:49:32;;;;;;;19.23;10.33;;;;;;;16.69;69.79;96180.50;5095873;28;20217;-78
2023/04/14 09:52:05;;;;;;;16.63;9.97;;;;;;;16.78;69.27;96180.53;5093929;28;20615;-82
2023/04/14 09:54:40;;;;;;;14.90;8.60;;;;;;;16.69;69.10;96185.72;5093726;28;20188;-82
2023/04/14 09:57:07;;;;;;;12.97;7.60;;;;;;;16.61;69.93;96188.16;5092329;28;20207;-79
2023/04/14 09:59:37;;;;;;;14.83;7.70;;;;;;;16.58;70.04;96162.25;5093076;28;20185;-77
2023/04/14 10:02:06;;;;;;;12.90;9.17;;;;;;;16.73;69.54;96155.75;5093044;28;20252;-76
2023/04/14 10:04:35;;;;;;;14.17;7.93;;;;;;;16.84;69.09;96150.44;5074892;28;20280;-81
2023/04/14 10:07:09;;;;;;;12.37;7.70;;;;;;;16.98;69.06;96147.50;5058900;28;20329;-81
2023/04/14 10:09:37;;;;;;;16.60;8.30;;;;;;;17.09;68.93;96147.38;5093888;28;20629;-82
2023/04/14 10:12:13;;;;;;;13.83;8.20;;;;;;;17.01;69.05;96152.44;5059648;28;20193;-83
2023/04/14 10:14:41;;;;;;;14.10;7.97;;;;;;;16.93;69.48;96140.03;5092658;28;20377;-84
2023/04/14 10:17:09;;;;;;;18.27;7.03;;;;;;;16.99;69.20;96142.13;5085364;28;20193;-79
2023/04/14 10:19:42;;;;;;;16.70;7.73;;;;;;;17.21;69.28;96158.59;5093230;28;20201;-81
2023/04/14 10:22:20;;;;;;;14.40;6.90;;;;;;;17.30;69.00;96149.94;5072704;28;20295;-81
2023/04/14 10:24:57;;;;;;;17.43;7.23;;;;;;;17.33;68.22;96139.22;5084959;28;20219;-78
2023/04/14 10:27:30;;;;;;;10.93;6.30;;;;;;;17.62;67.68;96116.59;5085125;28;20219;-78
2023/04/14 10:29:57;;;;;;;9.93;6.13;;;;;;;17.84;66.95;96127.66;5096163;28;20234;-77
2023/04/14 10:32:30;;;;;;;19.63;7.57;;;;;;;17.91;66.55;96130.53;5088702;28;20186;-84
2023/04/14 10:35:05;;;;;;;16.00;7.20;;;;;;;18.07;66.12;96145.72;5091611;28;20188;-77
2023/04/14 10:37:32;;;;;;;17.27;6.83;;;;;;;18.10;65.35;96138.41;5074842;28;20189;-81
2023/04/14 10:40:04;;;;;;;15.83;6.07;;;;;;;18.08;64.88;96136.88;5090877;28;20201;-81
2023/04/14 10:42:51;;;;;;;13.23;6.63;;;;;;;18.11;65.34;96149.72;5091912;28;20677;-77
2023/04/14 10:45:18;;;;;;;12.27;5.90;;;;;;;18.19;64.88;96160.34;5089983;28;20205;-76
2023/04/14 10:47:47;;;;;;;12.50;5.90;;;;;;;18.17;64.49;96152.63;5090143;28;20196;-77
2023/04/14 10:50:21;;;;;;;11.00;5.70;;;;;;;18.24;64.45;96151.09;5089889;28;20268;-77
2023/04/14 10:52:55;;;;;;;15.13;6.07;;;;;;;18.18;64.09;96135.06;5104720;28;20685;-77
2023/04/14 10:55:24;;;;;;;10.63;5.33;;;;;;;18.30;64.01;96136.63;5089455;28;20182;-80
2023/04/14 10:57:53;;;;;;;10.93;5.37;;;;;;;18.52;63.47;96133.72;5069213;28;20201;-79
2023/04/14 11:00:22;;;;;;;10.97;5.70;;;;;;;18.52;63.37;96141.59;5087238;28;20240;-80
2023/04/14 11:03:15;;;;;;;19.93;5.63;;;;;;;18.50;62.86;96138.28;5087492;28;20191;-78
2023/04/14 11:05:44;;;;;;;12.47;5.93;;;;;;;18.67;63.08;96137.53;5085277;28;20693;-80
2023/04/14 11:08:13;;;;;;;13.23;5.07;;;;;;;18.46;62.88;96126.41;5087223;28;20255;-77
2023/04/14 11:10:47;;;;;;;9.60;4.63;;;;;;;18.47;63.03;96138.53;5086181;28;20230;-78
2023/04/14 11:13:14;;;;;;;11.57;4.40;;;;;;;18.50;62.39;96123.38;5086559;28;20195;-77
2023/04/14 11:15:56;;;;;;;14.90;4.67;;;;;;;18.69;61.91;96130.38;5080048;28;20264;-80
2023/04/14 11:18:29;;;;;;;14.27;4.73;;;;;;;18.97;61.84;96133.88;5066930;28;20307;-71
2023/04/14 11:21:12;;;;;;;9.20;4.40;;;;;;;18.91;61.02;96135.28;5067420;28;20244;-73
2023/04/14 11:23:52;;;;;;;10.67;4.47;;;;;;;18.92;61.02;96138.75;5065343;28;20199;-76
2023/04/14 11:26:23;;;;;;;10.53;4.50;;;;;;;18.96;61.28;96135.66;5066715;28;20194;-76
2023/04/14 11:28:52;;;;;;;11.13;4.53;;;;;;;18.81;60.87;96129.25;5067017;28;20647;-74
2023/04/14 11:31:26;;;;;;;10.03;4.23;;;;;;;18.78;61.24;96116.41;5066213;28;20195;-78
2023/04/14 11:33:54;;;;;;;11.43;4.70;;;;;;;18.97;61.11;96108.47;5067005;28;20194;-75
2023/04/14 11:36:23;;;;;;;9.53;4.50;;;;;;;19.09;60.80;96104.69;5047208;28;20207;-78
2023/04/14 11:38:50;;;;;;;15.57;5.00;;;;;;;19.29;60.22;96094.91;5066939;28;20189;-77
2023/04/14 11:41:19;;;;;;;15.33;7.43;;;;;;;19.26;60.78;96103.91;5083659;28;20242;-77
2023/04/14 11:43:49;;;;;;;9.80;5.73;;;;;;;19.18;60.87;96103.81;5072797;28;20224;-78
2023/04/14 11:46:20;;;;;;;9.40;5.00;;;;;;;19.10;61.05;96074.81;5066525;28;20233;-79
2023/04/14 11:48:55;;;;;;;11.83;4.73;;;;;;;19.27;60.26;96076.69;5068495;28;20683;-84
2023/04/14 11:51:29;;;;;;;10.90;3.73;;;;;;;19.28;59.84;96067.00;5059765;28;20252;-80
2023/04/14 11:53:58;;;;;;;11.90;4.57;;;;;;;19.59;58.89;96081.50;5065340;28;20288;-81
2023/04/14 11:56:29;;;;;;;8.63;4.53;;;;;;;19.81;58.18;96067.94;5077603;28;20208;-80